createdAt,value
2019-03-20T00:00:35.941Z,14.47
2019-03-20T00:03:06.859Z,13.72
2019-03-20T00:05:38.092Z,14.03
2019-03-20T00:08:09.165Z,13.23
2019-03-20T00:10:40.053Z,13.70
2019-03-20T00:13:11.092Z,12.98
2019-03-20T00:15:42.222Z,13.50
2019-03-20T00:18:13.856Z,13.25
2019-03-20T00:20:45.263Z,13.20
2019-03-20T00:23:16.307Z,13.20
2019-03-20T00:25:47.197Z,13.15
2019-03-20T00:28:17.934Z,13.65
2019-03-20T00:30:48.828Z,13.63
2019-03-20T00:33:20.513Z,13.65
2019-03-20T00:35:51.348Z,13.35
2019-03-20T00:38:22.097Z,12.65
2019-03-20T00:40:52.833Z,12.50
2019-03-20T00:43:23.593Z,12.82
2019-03-20T00:45:54.348Z,12.03
2019-03-20T00:48:25.394Z,12.75
2019-03-20T00:50:56.429Z,12.33
2019-03-20T00:53:27.178Z,12.98
2019-03-20T00:55:57.909Z,13.45
2019-03-20T00:58:29.725Z,12.63
2019-03-20T01:01:00.605Z,12.98
2019-03-20T01:03:31.430Z,12.30
2019-03-20T01:06:02.173Z,12.60
2019-03-20T01:08:32.926Z,12.53
2019-03-20T01:11:04.014Z,12.37
2019-03-20T01:13:34.746Z,11.90
2019-03-20T01:16:05.492Z,13.03
2019-03-20T01:18:36.210Z,11.78
2019-03-20T01:21:07.304Z,13.55
2019-03-20T01:23:38.046Z,13.08
2019-03-20T01:26:08.877Z,12.60
2019-03-20T01:28:39.627Z,12.43
2019-03-20T01:31:10.368Z,12.90
2019-03-20T01:33:41.133Z,12.80
2019-03-20T01:36:12.227Z,12.30
2019-03-20T01:38:43.027Z,12.37
2019-03-20T01:41:13.771Z,11.75
2019-03-20T01:43:44.866Z,12.50
2019-03-20T01:46:15.595Z,12.73
2019-03-20T01:48:46.688Z,12.43
2019-03-20T01:51:21.653Z,12.70
2019-03-20T01:53:52.417Z,12.90
2019-03-20T01:56:23.205Z,12.95
2019-03-20T01:58:54.250Z,12.43
2019-03-20T02:01:24.987Z,12.65
2019-03-20T02:03:56.019Z,12.93
2019-03-20T02:06:27.782Z,12.47
2019-03-20T02:08:58.617Z,12.55
2019-03-20T02:11:29.428Z,12.35
2019-03-20T02:14:00.490Z,12.75
2019-03-20T02:16:31.667Z,12.20
2019-03-20T02:19:02.481Z,12.88
2019-03-20T02:21:33.251Z,13.43
2019-03-20T02:24:04.097Z,12.23
2019-03-20T02:26:35.136Z,13.13
2019-03-20T02:29:05.955Z,12.88
2019-03-20T02:31:36.714Z,12.20
2019-03-20T02:34:07.463Z,12.18
2019-03-20T02:36:38.207Z,11.90
2019-03-20T02:39:08.962Z,12.73
2019-03-20T02:41:39.715Z,12.82
2019-03-20T02:44:10.474Z,12.45
2019-03-20T02:46:41.224Z,13.05
2019-03-20T02:49:12.310Z,13.15
2019-03-20T02:51:44.045Z,13.48
2019-03-20T02:54:14.868Z,12.53
2019-03-20T02:56:45.614Z,12.50
2019-03-20T02:59:16.386Z,13.00
2019-03-20T03:01:47.417Z,12.70
2019-03-20T03:04:18.207Z,12.93
2019-03-20T03:06:49.335Z,13.08
2019-03-20T03:09:20.101Z,13.13
2019-03-20T03:11:51.282Z,12.47
2019-03-20T03:14:25.254Z,13.34
2019-03-20T03:16:55.991Z,13.62
2019-03-20T03:19:26.744Z,13.88
2019-03-20T03:21:57.779Z,12.68
2019-03-20T03:24:28.854Z,13.00
2019-03-20T03:27:00.195Z,12.95
2019-03-20T03:29:32.068Z,12.90
2019-03-20T03:32:03.153Z,12.53
2019-03-20T03:34:33.978Z,12.80
2019-03-20T03:37:04.799Z,13.40
2019-03-20T03:39:35.540Z,13.45
2019-03-20T03:42:07.687Z,13.50
2019-03-20T03:44:41.007Z,13.38
2019-03-20T03:47:12.798Z,13.08
2019-03-20T03:49:43.572Z,12.43
2019-03-20T03:52:14.384Z,13.68
2019-03-20T03:54:45.209Z,13.88
2019-03-20T03:57:16.063Z,15.43
2019-03-20T03:59:46.824Z,13.95
2019-03-20T04:02:17.700Z,12.93
2019-03-20T04:04:48.462Z,13.27
2019-03-20T04:07:19.695Z,13.10
2019-03-20T04:09:51.489Z,13.85
2019-03-20T04:12:22.203Z,13.20
2019-03-20T04:14:53.026Z,12.65
2019-03-20T04:17:25.344Z,12.33
2019-03-20T04:19:56.849Z,12.25
2019-03-20T04:22:29.208Z,12.68
2019-03-20T04:25:01.381Z,12.63
2019-03-20T04:27:32.200Z,13.62
2019-03-20T04:30:03.662Z,13.13
2019-03-20T04:32:34.477Z,12.37
2019-03-20T04:35:05.460Z,12.80
2019-03-20T04:37:36.218Z,12.55
2019-03-20T04:40:07.415Z,12.73
2019-03-20T04:42:38.395Z,12.90
2019-03-20T04:45:12.300Z,13.25
2019-03-20T04:47:42.582Z,12.68
2019-03-20T04:50:13.497Z,13.55
2019-03-20T04:52:44.232Z,13.50
2019-03-20T04:55:16.212Z,13.13
2019-03-20T04:57:47.247Z,12.53
2019-03-20T05:00:18.541Z,12.25
2019-03-20T05:02:49.301Z,12.95
2019-03-20T05:05:20.770Z,13.10
2019-03-20T05:07:51.592Z,12.75
2019-03-20T05:10:22.686Z,13.40
2019-03-20T05:12:53.750Z,12.95
2019-03-20T05:15:24.775Z,13.00
2019-03-20T05:17:55.840Z,13.32
2019-03-20T05:20:26.568Z,12.00
2019-03-20T05:22:57.598Z,12.33
2019-03-20T05:25:28.731Z,12.17
2019-03-20T05:27:59.767Z,12.33
2019-03-20T05:30:30.581Z,11.85
2019-03-20T05:33:01.289Z,12.98
2019-03-20T05:35:33.026Z,12.35
2019-03-20T05:38:03.802Z,12.63
2019-03-20T05:40:34.589Z,12.03
2019-03-20T05:43:05.460Z,12.25
2019-03-20T05:45:36.267Z,11.68
2019-03-20T05:48:07.370Z,11.83
2019-03-20T05:50:38.597Z,11.20
2019-03-20T05:53:09.320Z,11.73
2019-03-20T05:55:40.512Z,11.55
2019-03-20T05:58:11.308Z,12.43
2019-03-20T06:00:42.110Z,12.15
2019-03-20T06:03:13.301Z,11.43
2019-03-20T06:05:44.054Z,12.43
2019-03-20T06:08:15.213Z,12.17
2019-03-20T06:10:45.958Z,11.78
2019-03-20T06:13:39.411Z,11.28
2019-03-20T06:16:10.583Z,11.55
2019-03-20T06:18:41.691Z,12.03
2019-03-20T06:21:12.440Z,11.97
2019-03-20T06:23:47.701Z,11.50
2019-03-20T06:26:18.425Z,10.38
2019-03-20T06:28:49.133Z,11.75
2019-03-20T06:31:19.887Z,10.90
2019-03-20T06:33:50.860Z,11.53
2019-03-20T06:36:22.382Z,10.80
2019-03-20T06:38:53.679Z,12.60
2019-03-20T06:41:24.404Z,11.28
2019-03-20T06:43:55.781Z,11.18
2019-03-20T06:46:26.554Z,11.83
2019-03-20T06:48:57.281Z,11.08
2019-03-20T06:51:28.319Z,11.35
2019-03-20T06:53:59.076Z,11.35
2019-03-20T06:56:29.943Z,11.50
2019-03-20T06:59:51.368Z,11.40
2019-03-20T07:02:22.167Z,11.00
2019-03-20T07:05:38.069Z,11.20
2019-03-20T07:08:08.773Z,10.87
2019-03-20T07:11:18.015Z,12.00
2019-03-20T07:13:50.652Z,11.57
2019-03-20T07:16:21.572Z,12.15
2019-03-20T07:18:52.335Z,12.17
2019-03-20T07:21:23.165Z,11.80
2019-03-20T07:23:53.881Z,11.80
2019-03-20T07:26:25.092Z,12.55
2019-03-20T07:28:55.817Z,12.23
2019-03-20T07:31:26.571Z,11.90
2019-03-20T07:33:57.661Z,11.65
2019-03-20T07:36:28.755Z,11.40
2019-03-20T07:38:59.565Z,11.90
2019-03-20T07:41:30.303Z,10.98
2019-03-20T07:44:01.042Z,11.45
2019-03-20T07:46:32.100Z,12.18
2019-03-20T07:49:02.916Z,12.03
2019-03-20T07:51:33.644Z,11.08
2019-03-20T07:54:04.846Z,11.48
2019-03-20T07:56:35.671Z,12.20
2019-03-20T07:59:06.670Z,12.60
2019-03-20T08:01:37.442Z,11.35
2019-03-20T08:04:08.186Z,11.88
2019-03-20T08:06:39.002Z,11.22
2019-03-20T08:09:09.738Z,11.43
2019-03-20T08:11:40.795Z,11.55
2019-03-20T08:14:12.101Z,12.03
2019-03-20T08:16:43.161Z,11.53
2019-03-20T08:19:13.906Z,11.57
2019-03-20T08:21:44.733Z,11.63
2019-03-20T08:24:16.025Z,11.30
2019-03-20T08:26:46.754Z,12.05
2019-03-20T08:29:17.782Z,12.43
2019-03-20T08:31:48.517Z,11.80
2019-03-20T08:34:19.916Z,11.60
2019-03-20T08:36:50.653Z,10.10
2019-03-20T08:39:21.407Z,11.05
2019-03-20T08:41:52.200Z,10.72
2019-03-20T08:44:22.964Z,10.95
2019-03-20T08:49:42.708Z,11.38
2019-03-20T08:52:13.877Z,10.85
2019-03-20T08:54:45.015Z,11.15
2019-03-20T08:57:15.792Z,11.55
2019-03-20T08:59:46.975Z,11.18
2019-03-20T09:02:17.796Z,11.43
2019-03-20T09:04:48.513Z,11.70
2019-03-20T09:07:19.371Z,11.28
2019-03-20T09:09:50.887Z,11.68
2019-03-20T09:12:22.412Z,10.47
2019-03-20T09:14:53.604Z,9.93
2019-03-20T09:17:24.351Z,11.85
2019-03-20T09:19:55.068Z,11.18
2019-03-20T09:22:26.153Z,10.70
2019-03-20T09:24:57.741Z,10.70
2019-03-20T09:27:28.491Z,11.00
2019-03-20T09:29:59.497Z,10.78
2019-03-20T09:32:30.225Z,10.32
2019-03-20T09:35:00.966Z,11.12
2019-03-20T09:37:32.694Z,10.28
2019-03-20T09:40:03.865Z,10.30
2019-03-20T09:42:35.322Z,9.55
2019-03-20T09:45:07.017Z,9.60
2019-03-20T09:47:37.767Z,9.50
2019-03-20T09:50:10.555Z,9.33
2019-03-20T09:52:41.372Z,8.20
2019-03-20T09:55:12.440Z,9.75
2019-03-20T09:57:43.289Z,9.08
2019-03-20T10:00:16.733Z,8.93
2019-03-20T10:02:47.549Z,8.68
2019-03-20T10:05:18.443Z,7.62
2019-03-20T10:07:49.517Z,8.53
2019-03-20T10:10:21.719Z,9.40
2019-03-20T10:12:52.574Z,8.78
2019-03-20T10:15:23.600Z,8.83
2019-03-20T10:17:54.598Z,9.18
2019-03-20T10:20:25.589Z,8.78
2019-03-20T10:22:56.531Z,8.90
2019-03-20T10:25:27.833Z,9.43
2019-03-20T10:27:58.658Z,9.83
2019-03-20T10:30:29.946Z,8.90
2019-03-20T10:33:00.954Z,8.87
2019-03-20T10:35:32.016Z,9.00
2019-03-20T10:38:02.814Z,8.90
2019-03-20T10:40:34.092Z,9.33
2019-03-20T10:43:05.034Z,9.08
2019-03-20T10:45:36.099Z,8.98
2019-03-20T10:48:06.975Z,8.18
2019-03-20T10:50:38.081Z,8.80
2019-03-20T10:53:08.926Z,8.80
2019-03-20T10:55:40.081Z,8.18
2019-03-20T10:58:11.201Z,8.60
2019-03-20T11:00:42.378Z,8.25
2019-03-20T11:03:13.298Z,7.60
2019-03-20T11:05:44.162Z,8.25
2019-03-20T11:08:15.032Z,7.83
2019-03-20T11:10:45.953Z,8.13
2019-03-20T11:13:16.785Z,9.08
2019-03-20T11:15:47.987Z,9.30
2019-03-20T11:18:19.072Z,7.80
2019-03-20T11:20:50.174Z,8.10
2019-03-20T11:23:20.965Z,7.70
2019-03-20T11:25:53.188Z,7.90
2019-03-20T11:28:23.990Z,6.20
2019-03-20T11:30:55.243Z,5.80
2019-03-20T11:33:26.480Z,5.70
2019-03-20T11:35:57.405Z,5.58
2019-03-20T11:38:28.268Z,5.67
2019-03-20T11:40:59.129Z,5.05
2019-03-20T11:43:30.111Z,5.30
2019-03-20T11:46:00.945Z,5.62
2019-03-20T11:48:33.409Z,5.28
2019-03-20T11:51:04.828Z,5.75
2019-03-20T11:53:35.672Z,4.95
2019-03-20T11:56:06.701Z,5.20
2019-03-20T11:58:37.555Z,4.65
2019-03-20T12:01:08.416Z,4.53
2019-03-20T12:03:39.657Z,4.72
2019-03-20T12:06:10.496Z,4.83
2019-03-20T12:08:41.322Z,4.30
2019-03-20T12:11:12.425Z,4.22
2019-03-20T12:13:43.298Z,4.40
2019-03-20T12:16:14.729Z,4.25
2019-03-20T12:18:45.587Z,3.45
2019-03-20T12:21:16.401Z,3.65
2019-03-20T12:23:47.626Z,3.57
2019-03-20T12:26:18.785Z,3.47
2019-03-20T12:28:50.345Z,3.23
2019-03-20T12:31:21.425Z,2.72
2019-03-20T12:33:53.409Z,2.22
2019-03-20T12:36:24.249Z,2.43
2019-03-20T12:38:55.170Z,2.50
2019-03-20T12:41:26.391Z,2.10
2019-03-20T12:43:57.233Z,1.80
2019-03-20T12:46:40.967Z,2.15
2019-03-20T12:49:00.622Z,2.27
2019-03-20T12:51:31.395Z,2.05
2019-03-20T12:54:02.165Z,2.27
2019-03-20T12:56:33.164Z,2.05
2019-03-20T12:59:04.029Z,2.00
2019-03-20T13:01:34.891Z,2.08
2019-03-20T13:04:05.818Z,2.10
2019-03-20T13:06:36.673Z,2.12
2019-03-20T13:09:08.585Z,2.17
2019-03-20T13:11:39.432Z,2.27
2019-03-20T13:14:10.274Z,2.50
2019-03-20T13:16:41.255Z,2.40
2019-03-20T13:19:12.105Z,2.20
2019-03-20T13:21:43.232Z,2.20
2019-03-20T13:24:14.354Z,2.20
2019-03-20T13:26:45.277Z,2.65
2019-03-20T13:29:16.138Z,2.52
2019-03-20T13:31:47.598Z,2.10
2019-03-20T13:34:18.704Z,2.58
2019-03-20T13:36:49.726Z,2.80
2019-03-20T13:39:20.552Z,2.70
2019-03-20T13:41:51.316Z,2.43
2019-03-20T13:44:22.161Z,2.55
2019-03-20T13:46:53.316Z,2.47
2019-03-20T13:49:24.195Z,2.20
2019-03-20T13:51:54.984Z,2.00
2019-03-20T13:54:25.809Z,2.70
2019-03-20T13:56:56.660Z,2.55
2019-03-20T13:59:27.428Z,1.90
2019-03-20T14:01:58.282Z,2.10
2019-03-20T14:04:29.452Z,2.00
2019-03-20T14:07:00.313Z,2.07
2019-03-20T14:09:31.099Z,1.85
2019-03-20T14:12:01.951Z,1.65
2019-03-20T14:14:33.462Z,1.93
2019-03-20T14:17:04.322Z,1.82
2019-03-20T14:19:35.165Z,2.00
2019-03-20T14:22:06.016Z,1.80
2019-03-20T14:24:36.842Z,2.00
2019-03-20T14:27:07.681Z,2.00
2019-03-20T14:29:39.658Z,1.90
2019-03-20T14:32:10.813Z,1.85
2019-03-20T14:34:41.654Z,2.10
2019-03-20T14:37:12.915Z,2.13
2019-03-20T14:39:43.788Z,2.00
2019-03-20T14:42:14.582Z,2.25
2019-03-20T14:44:45.728Z,2.27
2019-03-20T14:47:16.566Z,2.10
2019-03-20T14:49:47.525Z,2.27
2019-03-20T14:52:18.698Z,2.52
2019-03-20T14:54:49.513Z,2.50
2019-03-20T14:57:20.344Z,2.47
2019-03-20T14:59:52.138Z,2.42
2019-03-20T15:02:22.978Z,2.30
2019-03-20T15:04:54.408Z,2.50
2019-03-20T15:07:25.509Z,2.67
2019-03-20T15:09:56.364Z,2.50
2019-03-20T15:12:27.189Z,2.62
2019-03-20T15:15:07.632Z,2.69
2019-03-20T15:17:38.520Z,3.42
2019-03-20T15:20:09.423Z,3.40
2019-03-20T15:22:40.190Z,3.35
2019-03-20T15:25:11.025Z,3.25
2019-03-20T15:27:42.915Z,3.80
2019-03-20T15:30:14.919Z,3.95
2019-03-20T15:32:45.848Z,4.03
2019-03-20T15:35:16.901Z,4.10
2019-03-20T15:37:47.886Z,4.20
2019-03-20T15:40:18.958Z,3.97
2019-03-20T15:42:49.837Z,4.00
2019-03-20T15:45:21.847Z,3.52
2019-03-20T15:47:52.785Z,3.70
2019-03-20T15:50:23.766Z,3.85
2019-03-20T15:53:01.395Z,3.80
2019-03-20T15:55:32.455Z,4.30
2019-03-20T15:58:03.483Z,3.90
2019-03-20T16:00:34.525Z,3.62
2019-03-20T16:03:10.874Z,3.60
2019-03-20T16:05:41.808Z,3.47
2019-03-20T16:08:12.696Z,3.55
2019-03-20T16:10:43.657Z,3.80
2019-03-20T16:13:14.610Z,3.98
2019-03-20T16:15:45.543Z,3.75
2019-03-20T16:18:16.765Z,3.87
2019-03-20T16:20:47.638Z,3.98
2019-03-20T16:23:18.640Z,4.00
2019-03-20T16:25:50.042Z,4.00
2019-03-20T16:28:20.974Z,4.15
2019-03-20T16:30:52.154Z,3.95
2019-03-20T16:33:23.026Z,4.10
2019-03-20T16:35:54.635Z,3.33
2019-03-20T16:38:25.511Z,3.65
2019-03-20T16:40:56.321Z,3.90
2019-03-20T16:43:27.572Z,4.00
2019-03-20T16:45:58.440Z,4.70
2019-03-20T16:48:29.266Z,4.30
2019-03-20T16:51:00.249Z,3.98
2019-03-20T16:53:31.114Z,4.10
2019-03-20T16:56:01.913Z,4.33
2019-03-20T16:58:32.873Z,4.30
2019-03-20T17:01:03.917Z,4.80
2019-03-20T17:03:36.119Z,4.92
2019-03-20T17:06:07.160Z,4.90
2019-03-20T17:08:37.994Z,4.92
2019-03-20T17:11:08.874Z,5.00
2019-03-20T17:13:39.778Z,5.05
2019-03-20T17:16:10.743Z,5.05
2019-03-20T17:18:41.623Z,4.97
2019-03-20T17:21:12.674Z,4.78
2019-03-20T17:23:43.534Z,5.12
2019-03-20T17:26:15.061Z,5.10
2019-03-20T17:28:45.861Z,5.10
2019-03-20T17:31:16.759Z,4.83
2019-03-20T17:33:47.627Z,5.22
2019-03-20T17:36:18.859Z,4.95
2019-03-20T17:38:49.788Z,5.35
2019-03-20T17:41:20.637Z,5.40
2019-03-20T17:43:51.435Z,5.53
2019-03-20T17:46:22.308Z,4.93
2019-03-20T17:48:53.212Z,5.08
2019-03-20T17:51:24.426Z,4.95
2019-03-20T17:53:55.389Z,5.75
2019-03-20T17:56:26.280Z,5.15
2019-03-20T17:58:57.155Z,5.20
2019-03-20T18:01:28.110Z,5.05
2019-03-20T18:05:38.867Z,5.53
2019-03-20T18:08:09.879Z,5.42
2019-03-20T18:10:40.828Z,5.10
2019-03-20T18:13:11.791Z,4.92
2019-03-20T18:15:43.179Z,5.15
2019-03-20T18:18:14.436Z,5.80
2019-03-20T18:20:45.364Z,5.47
2019-03-20T18:23:16.331Z,5.50
2019-03-20T18:25:47.294Z,4.90
2019-03-20T18:28:18.186Z,5.40
2019-03-20T18:30:49.117Z,5.75
2019-03-20T18:33:20.366Z,6.17
2019-03-20T18:35:51.153Z,6.15
2019-03-20T18:38:22.014Z,6.15
2019-03-20T18:40:53.236Z,6.47
2019-03-20T18:43:24.096Z,6.53
2019-03-20T18:45:55.025Z,6.50
2019-03-20T18:48:26.200Z,6.42
2019-03-20T18:50:57.023Z,6.60
2019-03-20T18:53:27.884Z,6.87
2019-03-20T18:55:58.732Z,5.75
2019-03-20T18:58:29.499Z,6.50
2019-03-20T19:01:00.404Z,6.53
2019-03-20T19:03:31.411Z,6.97
2019-03-20T19:06:05.917Z,6.37
2019-03-20T19:08:36.797Z,6.20
2019-03-20T19:11:07.721Z,6.58
2019-03-20T19:13:38.582Z,6.53
2019-03-20T19:16:09.455Z,6.80
2019-03-20T19:18:40.400Z,6.90
2019-03-20T19:21:11.518Z,6.35
2019-03-20T19:23:42.445Z,7.40
2019-03-20T19:26:13.672Z,7.00
2019-03-20T19:28:44.449Z,7.13
2019-03-20T19:31:15.262Z,7.33
2019-03-20T19:33:46.019Z,7.00
2019-03-20T19:36:16.762Z,7.00
2019-03-20T19:38:47.635Z,6.60
2019-03-20T19:41:18.706Z,7.08
2019-03-20T19:43:49.491Z,6.75
2019-03-20T19:46:20.340Z,6.87
2019-03-20T19:48:51.121Z,6.67
2019-03-20T19:51:21.939Z,7.33
2019-03-20T19:53:52.797Z,8.15
2019-03-20T19:56:23.581Z,6.90
2019-03-20T19:58:54.342Z,7.60
2019-03-20T20:01:26.192Z,7.70
2019-03-20T20:03:57.172Z,7.60
2019-03-20T20:06:27.982Z,7.42
2019-03-20T20:08:58.813Z,7.45
2019-03-20T20:11:29.525Z,7.90
2019-03-20T20:14:00.296Z,7.80
2019-03-20T20:16:31.117Z,8.30
2019-03-20T20:19:01.876Z,8.35
2019-03-20T20:21:32.647Z,7.87
2019-03-20T20:24:03.425Z,7.97
2019-03-20T20:26:34.221Z,7.97
2019-03-20T20:29:05.425Z,7.70
2019-03-20T20:31:36.477Z,8.00
2019-03-20T20:34:07.536Z,7.85
2019-03-20T20:36:38.336Z,7.67
2019-03-20T20:39:09.193Z,9.33
2019-03-20T20:41:40.010Z,8.08
2019-03-20T20:44:10.837Z,8.65
2019-03-20T20:46:41.586Z,8.68
2019-03-20T20:49:12.621Z,8.90
2019-03-20T20:51:43.366Z,9.20
2019-03-20T20:54:14.417Z,8.98
2019-03-20T20:56:45.222Z,8.57
2019-03-20T20:59:25.463Z,8.83
2019-03-20T21:01:56.371Z,8.75
2019-03-20T21:04:27.457Z,9.43
2019-03-20T21:06:58.220Z,10.08
2019-03-20T21:09:29.049Z,10.47
2019-03-20T21:12:00.186Z,9.28
2019-03-20T21:14:30.966Z,10.03
2019-03-20T21:17:02.356Z,10.90
2019-03-20T21:19:32.918Z,10.35
2019-03-20T21:22:42.167Z,10.38
2019-03-20T21:25:14.733Z,11.30
2019-03-20T21:28:30.381Z,11.12
2019-03-20T21:31:18.466Z,10.38
2019-03-20T21:34:18.402Z,9.93
2019-03-20T21:37:38.756Z,10.80
2019-03-20T21:40:11.350Z,10.68
2019-03-20T21:43:44.886Z,11.08
2019-03-20T21:46:47.262Z,10.48
2019-03-20T21:49:18.553Z,11.30
2019-03-20T21:51:49.984Z,11.63
2019-03-20T21:54:48.206Z,11.50
2019-03-20T21:58:02.502Z,10.80
2019-03-20T22:01:26.898Z,13.62
2019-03-20T22:03:58.646Z,11.78
2019-03-20T22:07:07.895Z,12.05
2019-03-20T22:10:34.281Z,12.05
2019-03-20T22:13:24.486Z,12.75
2019-03-20T22:16:38.447Z,13.00
2019-03-20T22:19:33.545Z,13.08
2019-03-20T22:22:35.137Z,13.18
2019-03-20T22:25:50.380Z,13.08
2019-03-20T22:28:56.095Z,12.65
2019-03-20T22:31:27.791Z,13.70
2019-03-20T22:34:31.812Z,13.38
2019-03-20T22:37:03.162Z,12.82
2019-03-20T22:40:11.823Z,13.70
2019-03-20T22:42:55.378Z,13.20
2019-03-20T22:46:03.784Z,13.35
2019-03-20T22:49:04.407Z,12.30
2019-03-20T22:52:12.272Z,12.10
2019-03-20T22:55:33.491Z,11.90
2019-03-20T22:58:16.745Z,11.73
2019-03-20T23:00:48.836Z,11.08
2019-03-20T23:03:30.528Z,11.25
2019-03-20T23:06:02.050Z,11.97
2019-03-20T23:08:33.714Z,10.65
2019-03-20T23:11:05.544Z,10.80
2019-03-20T23:13:41.636Z,10.43
2019-03-20T23:16:10.977Z,10.28
2019-03-20T23:18:42.270Z,10.57
2019-03-20T23:21:14.681Z,9.78
2019-03-20T23:23:45.962Z,10.30
2019-03-20T23:26:17.271Z,10.50
2019-03-20T23:28:48.643Z,11.80
2019-03-20T23:31:20.191Z,10.65
2019-03-20T23:33:51.592Z,10.60
2019-03-20T23:36:23.211Z,10.95
2019-03-20T23:38:55.046Z,10.37
2019-03-20T23:41:26.341Z,10.93
2019-03-20T23:43:57.623Z,10.68
2019-03-20T23:46:28.937Z,10.85
2019-03-20T23:49:04.140Z,10.30
2019-03-20T23:51:35.553Z,10.82
2019-03-20T23:54:06.928Z,10.95
2019-03-20T23:56:38.472Z,10.53
2019-03-20T23:59:09.893Z,10.40
